createdAt,value
2018-03-08T00:00:50.590Z,7.36
2018-03-08T00:03:20.438Z,7.33
2018-03-08T00:05:49.556Z,7.30
2018-03-08T00:08:18.664Z,7.29
2018-03-08T00:10:47.741Z,7.28
2018-03-08T00:13:16.893Z,7.28
2018-03-08T00:15:46.697Z,7.27
2018-03-08T00:18:16.579Z,7.29
2018-03-08T00:20:45.655Z,7.24
2018-03-08T00:23:14.768Z,7.24
2018-03-08T00:25:43.833Z,7.19
2018-03-08T00:28:12.950Z,7.20
2018-03-08T00:30:43.718Z,7.17
2018-03-08T00:33:12.785Z,7.16
2018-03-08T00:35:41.873Z,7.24
2018-03-08T00:38:10.956Z,7.23
2018-03-08T00:40:40.057Z,7.20
2018-03-08T00:43:09.132Z,7.17
2018-03-08T00:45:38.215Z,7.17
2018-03-08T00:48:07.317Z,7.20
2018-03-08T00:50:36.421Z,7.22
2018-03-08T00:53:05.517Z,7.23
2018-03-08T00:55:34.602Z,7.18
2018-03-08T00:58:03.880Z,7.23
2018-03-08T01:00:32.946Z,7.22
2018-03-08T01:03:03.550Z,7.19
2018-03-08T01:05:32.631Z,7.23
2018-03-08T01:08:01.740Z,7.29
2018-03-08T01:10:30.898Z,7.26
2018-03-08T01:13:00.745Z,7.34
2018-03-08T01:15:29.840Z,7.36
2018-03-08T01:17:58.941Z,7.28
2018-03-08T01:20:28.024Z,7.30
2018-03-08T01:22:57.137Z,7.33
2018-03-08T01:25:26.206Z,7.32
2018-03-08T01:27:56.079Z,7.30
2018-03-08T01:30:25.175Z,7.31
2018-03-08T01:32:54.276Z,7.24
2018-03-08T01:35:23.347Z,7.26
2018-03-08T01:37:53.210Z,7.27
2018-03-08T01:40:23.070Z,7.30
2018-03-08T01:42:52.170Z,7.29
2018-03-08T01:45:21.255Z,7.25
2018-03-08T01:47:50.351Z,7.20
2018-03-08T01:50:19.462Z,7.14
2018-03-08T01:52:48.526Z,7.10
2018-03-08T01:55:17.619Z,7.05
2018-03-08T01:57:46.718Z,7.08
2018-03-08T02:00:15.801Z,7.06
2018-03-08T02:02:44.882Z,7.06
2018-03-08T02:05:14.744Z,7.06
2018-03-08T02:07:43.826Z,7.13
2018-03-08T02:10:12.919Z,7.14
2018-03-08T02:12:42.003Z,7.17
2018-03-08T02:15:11.856Z,7.17
2018-03-08T02:17:40.952Z,7.18
2018-03-08T02:20:10.033Z,7.14
2018-03-08T02:22:39.130Z,7.14
2018-03-08T02:25:08.227Z,7.09
2018-03-08T02:27:37.337Z,7.11
2018-03-08T02:30:06.411Z,7.12
2018-03-08T02:32:35.511Z,7.11
2018-03-08T02:35:04.584Z,7.09
2018-03-08T02:37:33.686Z,7.15
2018-03-08T02:40:02.770Z,7.13
2018-03-08T02:42:31.889Z,7.09
2018-03-08T02:45:00.957Z,7.05
2018-03-08T02:47:30.056Z,7.08
2018-03-08T02:49:59.143Z,7.03
2018-03-08T02:52:29.021Z,7.03
2018-03-08T02:54:58.088Z,7.05
2018-03-08T02:57:27.194Z,7.05
2018-03-08T02:59:56.912Z,7.01
2018-03-08T03:02:25.994Z,7.00
2018-03-08T03:04:55.085Z,6.97
2018-03-08T03:07:24.171Z,6.94
2018-03-08T03:09:53.324Z,6.95
2018-03-08T03:12:22.367Z,6.92
2018-03-08T03:14:51.464Z,6.89
2018-03-08T03:17:20.558Z,6.86
2018-03-08T03:19:49.657Z,6.82
2018-03-08T03:22:18.725Z,6.88
2018-03-08T03:24:47.833Z,6.89
2018-03-08T03:27:16.906Z,6.89
2018-03-08T03:29:46.777Z,6.90
2018-03-08T03:32:15.852Z,6.98
2018-03-08T03:34:44.960Z,6.97
2018-03-08T03:37:14.043Z,6.94
2018-03-08T03:39:43.139Z,6.99
2018-03-08T03:42:12.241Z,7.01
2018-03-08T03:44:41.318Z,6.95
2018-03-08T03:47:10.416Z,6.88
2018-03-08T03:49:39.516Z,6.92
2018-03-08T03:52:08.637Z,6.88
2018-03-08T03:54:37.714Z,6.86
2018-03-08T03:57:06.827Z,6.88
2018-03-08T03:59:35.939Z,6.87
2018-03-08T04:02:05.063Z,6.95
2018-03-08T04:04:34.141Z,6.96
2018-03-08T04:07:03.228Z,6.96
2018-03-08T04:09:32.321Z,6.95
2018-03-08T04:12:01.393Z,6.97
2018-03-08T04:14:30.495Z,7.06
2018-03-08T04:16:59.581Z,7.10
2018-03-08T04:19:28.671Z,7.06
2018-03-08T04:21:57.752Z,7.08
2018-03-08T04:24:26.862Z,7.18
2018-03-08T04:26:55.944Z,7.22
2018-03-08T04:29:25.050Z,7.27
2018-03-08T04:31:54.149Z,7.25
2018-03-08T04:34:23.238Z,7.32
2018-03-08T04:36:52.337Z,7.25
2018-03-08T04:39:22.242Z,7.23
2018-03-08T04:41:51.313Z,7.23
2018-03-08T04:44:21.177Z,7.18
2018-03-08T04:46:50.250Z,7.24
2018-03-08T04:49:19.376Z,7.23
2018-03-08T04:51:48.438Z,7.25
2018-03-08T04:54:17.538Z,7.21
2018-03-08T04:56:46.638Z,7.12
2018-03-08T04:59:15.815Z,7.23
2018-03-08T05:01:44.926Z,7.25
2018-03-08T05:04:13.998Z,7.26
2018-03-08T05:06:43.908Z,7.24
2018-03-08T05:09:12.970Z,7.34
2018-03-08T05:11:42.065Z,7.32
2018-03-08T05:14:11.146Z,7.32
2018-03-08T05:16:40.252Z,7.30
2018-03-08T05:19:09.349Z,7.26
2018-03-08T05:21:38.443Z,7.20
2018-03-08T05:24:07.528Z,7.19
2018-03-08T05:26:36.630Z,7.18
2018-03-08T05:29:05.709Z,7.17
2018-03-08T05:31:34.794Z,7.22
2018-03-08T05:34:03.895Z,7.17
2018-03-08T05:36:33.778Z,7.24
2018-03-08T05:39:03.616Z,7.25
2018-03-08T05:41:32.701Z,7.27
2018-03-08T05:44:01.809Z,7.24
2018-03-08T05:46:30.889Z,7.22
2018-03-08T05:49:00.791Z,7.21
2018-03-08T05:51:29.873Z,7.16
2018-03-08T05:54:00.477Z,7.01
2018-03-08T05:56:29.553Z,6.89
2018-03-08T05:58:58.662Z,6.80
2018-03-08T06:01:27.794Z,6.72
2018-03-08T06:03:56.880Z,6.60
2018-03-08T06:06:26.013Z,6.47
2018-03-08T06:08:55.853Z,6.46
2018-03-08T06:11:24.966Z,6.37
2018-03-08T06:13:54.049Z,6.38
2018-03-08T06:16:23.154Z,6.35
2018-03-08T06:18:52.242Z,6.38
2018-03-08T06:21:21.353Z,6.44
2018-03-08T06:23:50.452Z,6.47
2018-03-08T06:26:19.547Z,6.51
2018-03-08T06:28:48.653Z,6.60
2018-03-08T06:31:17.753Z,6.59
2018-03-08T06:33:46.826Z,6.59
2018-03-08T06:36:15.936Z,6.63
2018-03-08T06:38:45.017Z,6.62
2018-03-08T06:41:14.129Z,6.53
2018-03-08T06:43:43.206Z,6.58
2018-03-08T06:46:12.315Z,6.63
2018-03-08T06:48:42.182Z,6.64
2018-03-08T06:51:11.310Z,6.69
2018-03-08T06:53:40.390Z,6.74
2018-03-08T06:56:09.492Z,6.70
2018-03-08T06:58:38.575Z,6.72
2018-03-08T07:01:07.701Z,6.87
2018-03-08T07:03:36.770Z,6.91
2018-03-08T07:06:05.870Z,6.90
2018-03-08T07:08:34.952Z,6.98
2018-03-08T07:11:04.038Z,6.97
2018-03-08T07:13:33.900Z,7.01
2018-03-08T07:16:03.021Z,7.03
2018-03-08T07:18:32.110Z,7.04
2018-03-08T07:21:01.226Z,7.11
2018-03-08T07:23:31.081Z,7.14
2018-03-08T07:26:00.163Z,7.15
2018-03-08T07:28:29.292Z,7.19
2018-03-08T07:30:58.350Z,7.29
2018-03-08T07:33:27.458Z,7.32
2018-03-08T07:35:56.563Z,7.33
2018-03-08T07:38:25.662Z,7.40
2018-03-08T07:40:54.743Z,7.39
2018-03-08T07:43:23.858Z,7.34
2018-03-08T07:45:52.930Z,7.44
2018-03-08T07:48:22.026Z,7.53
2018-03-08T07:50:51.141Z,7.57
2018-03-08T07:53:20.233Z,7.71
2018-03-08T07:55:49.316Z,7.80
2018-03-08T07:58:18.401Z,7.85
2018-03-08T08:00:47.541Z,7.86
2018-03-08T08:03:16.623Z,7.79
2018-03-08T08:06:03.454Z,7.78
2018-03-08T08:08:50.216Z,7.94
2018-03-08T08:11:19.325Z,8.14
2018-03-08T08:13:48.465Z,8.29
2018-03-08T08:16:18.336Z,8.35
2018-03-08T08:18:47.430Z,8.33
2018-03-08T08:21:16.543Z,8.38
2018-03-08T08:23:45.615Z,8.49
2018-03-08T08:26:14.742Z,8.65
2018-03-08T08:28:43.834Z,8.83
2018-03-08T08:31:12.945Z,8.86
2018-03-08T08:33:42.051Z,9.03
2018-03-08T08:36:11.175Z,9.07
2018-03-08T08:38:41.050Z,9.01
2018-03-08T08:41:10.144Z,8.88
2018-03-08T08:43:40.034Z,8.84
2018-03-08T08:46:09.097Z,8.91
2018-03-08T08:48:38.970Z,8.92
2018-03-08T08:51:08.067Z,8.85
2018-03-08T08:53:37.151Z,8.88
2018-03-08T08:56:06.241Z,8.88
2018-03-08T08:58:35.335Z,8.99
2018-03-08T09:01:04.415Z,9.09
2018-03-08T09:03:33.537Z,9.12
2018-03-08T09:06:02.607Z,9.15
2018-03-08T09:08:31.715Z,9.22
2018-03-08T09:11:00.829Z,9.20
2018-03-08T09:13:29.894Z,9.26
2018-03-08T09:15:58.993Z,9.26
2018-03-08T09:18:28.107Z,9.36
2018-03-08T09:20:57.219Z,9.51
2018-03-08T09:23:26.357Z,9.61
2018-03-08T09:25:56.233Z,9.77
2018-03-08T09:28:26.142Z,9.86
2018-03-08T09:30:55.989Z,10.00
2018-03-08T09:33:25.855Z,10.12
2018-03-08T09:35:54.952Z,10.12
2018-03-08T09:38:24.042Z,10.28
2018-03-08T09:40:53.171Z,10.23
2018-03-08T09:43:22.289Z,10.22
2018-03-08T09:45:51.421Z,10.24
2018-03-08T09:48:20.497Z,10.25
2018-03-08T09:50:49.605Z,10.10
2018-03-08T09:53:18.693Z,10.02
2018-03-08T09:55:47.816Z,10.06
2018-03-08T09:58:16.913Z,10.29
2018-03-08T10:00:46.989Z,10.49
2018-03-08T10:03:16.885Z,10.59
2018-03-08T10:05:45.975Z,10.58
2018-03-08T10:08:15.068Z,10.66
2018-03-08T10:10:44.206Z,10.64
2018-03-08T10:13:14.116Z,10.64
2018-03-08T10:15:43.156Z,10.58
2018-03-08T10:18:12.268Z,10.69
2018-03-08T10:20:41.364Z,10.80
2018-03-08T10:23:10.496Z,10.95
2018-03-08T10:25:40.348Z,11.01
2018-03-08T10:28:09.458Z,11.07
2018-03-08T10:30:38.543Z,10.86
2018-03-08T10:33:07.641Z,11.05
2018-03-08T10:35:36.733Z,11.15
2018-03-08T10:38:05.831Z,11.31
2018-03-08T10:43:04.056Z,11.33
2018-03-08T10:45:33.169Z,11.40
2018-03-08T10:48:03.054Z,11.47
2018-03-08T10:50:32.160Z,11.51
2018-03-08T10:53:01.266Z,11.50
2018-03-08T10:55:31.154Z,11.49
2018-03-08T10:58:00.280Z,11.60
2018-03-08T11:00:35.781Z,11.91
2018-03-08T11:03:07.013Z,12.00
2018-03-08T11:05:42.194Z,12.00
2018-03-08T11:08:11.290Z,12.24
2018-03-08T11:10:40.391Z,12.24
2018-03-08T11:13:10.250Z,12.26
2018-03-08T11:15:39.338Z,12.04
2018-03-08T11:18:08.437Z,11.93
2018-03-08T11:20:37.522Z,11.84
2018-03-08T11:23:06.645Z,11.87
2018-03-08T11:25:35.722Z,12.05
2018-03-08T11:28:04.845Z,11.99
2018-03-08T11:30:33.945Z,11.88
2018-03-08T11:33:03.078Z,11.67
2018-03-08T11:35:32.953Z,11.65
2018-03-08T11:38:02.074Z,11.64
2018-03-08T11:40:31.186Z,11.64
2018-03-08T11:43:00.298Z,11.75
2018-03-08T11:45:30.145Z,11.90
2018-03-08T11:47:59.258Z,11.82
2018-03-08T11:50:28.343Z,11.82
2018-03-08T11:52:57.439Z,11.74
2018-03-08T11:55:26.585Z,11.76
2018-03-08T11:57:55.681Z,11.85
2018-03-08T12:00:25.591Z,11.94
2018-03-08T12:02:55.470Z,12.06
2018-03-08T12:05:24.577Z,12.24
2018-03-08T12:07:53.678Z,12.49
2018-03-08T12:10:22.798Z,12.46
2018-03-08T12:12:52.670Z,12.45
2018-03-08T12:15:21.787Z,12.66
2018-03-08T12:17:50.899Z,12.64
2018-03-08T12:20:20.783Z,12.72
2018-03-08T12:22:50.675Z,12.79
2018-03-08T12:25:19.777Z,12.63
2018-03-08T12:27:48.870Z,12.32
2018-03-08T12:30:17.977Z,12.29
2018-03-08T12:32:47.067Z,12.25
2018-03-08T12:35:16.163Z,12.17
2018-03-08T12:37:45.292Z,12.17
2018-03-08T12:40:14.394Z,12.14
2018-03-08T12:42:44.278Z,12.14
2018-03-08T12:45:13.373Z,12.14
2018-03-08T12:47:42.502Z,12.16
2018-03-08T12:50:12.359Z,12.28
2018-03-08T12:52:41.478Z,12.36
2018-03-08T12:55:10.591Z,12.51
2018-03-08T12:57:39.714Z,12.61
2018-03-08T13:00:09.587Z,12.75
2018-03-08T13:02:39.334Z,12.68
2018-03-08T13:05:09.230Z,12.89
2018-03-08T13:07:38.344Z,12.92
2018-03-08T13:10:07.494Z,12.89
2018-03-08T13:12:36.578Z,12.87
2018-03-08T13:15:06.472Z,12.97
2018-03-08T13:17:36.341Z,13.08
2018-03-08T13:20:05.455Z,13.07
2018-03-08T13:22:34.549Z,13.17
2018-03-08T13:25:03.668Z,13.18
2018-03-08T13:27:33.541Z,13.34
2018-03-08T13:30:02.637Z,13.49
2018-03-08T13:32:31.756Z,13.48
2018-03-08T13:35:00.870Z,13.57
2018-03-08T13:37:30.740Z,13.71
2018-03-08T13:39:59.863Z,13.57
2018-03-08T13:42:28.958Z,13.66
2018-03-08T13:44:58.047Z,13.82
2018-03-08T13:47:27.179Z,14.06
2018-03-08T13:49:57.065Z,14.43
2018-03-08T13:52:26.225Z,14.62
2018-03-08T13:54:56.074Z,14.79
2018-03-08T13:57:25.173Z,14.55
2018-03-08T13:59:54.302Z,14.33
2018-03-08T14:02:23.426Z,14.18
2018-03-08T14:04:52.504Z,14.11
2018-03-08T14:07:21.658Z,14.44
2018-03-08T14:09:50.778Z,14.66
2018-03-08T14:12:20.663Z,14.59
2018-03-08T14:14:49.817Z,14.90
2018-03-08T14:17:18.940Z,15.25
2018-03-08T14:19:48.172Z,15.60
2018-03-08T14:22:17.292Z,17.73
2018-03-08T14:24:46.407Z,18.65
2018-03-08T14:27:15.529Z,17.01
2018-03-08T14:29:44.651Z,17.43
2018-03-08T14:32:13.751Z,20.36
2018-03-08T14:34:43.380Z,21.18
2018-03-08T14:37:13.245Z,20.50
2018-03-08T14:39:42.363Z,19.80
2018-03-08T14:42:11.535Z,21.62
2018-03-08T14:44:40.571Z,22.64
2018-03-08T14:47:10.438Z,23.14
2018-03-08T14:49:39.555Z,21.83
2018-03-08T14:52:08.641Z,22.54
2018-03-08T14:54:37.747Z,22.47
2018-03-08T14:57:06.839Z,20.83
2018-03-08T14:59:35.958Z,22.93
2018-03-08T15:02:05.824Z,22.96
2018-03-08T15:04:35.038Z,22.65
2018-03-08T15:07:04.479Z,23.38
2018-03-08T15:09:34.369Z,24.45
2018-03-08T15:12:05.890Z,24.07
2018-03-08T15:14:34.983Z,24.59
2018-03-08T15:17:04.079Z,24.54
2018-03-08T15:19:33.191Z,24.11
2018-03-08T15:22:02.378Z,24.58
2018-03-08T15:24:31.455Z,24.80
2018-03-08T15:27:00.577Z,24.62
2018-03-08T15:29:29.690Z,23.29
2018-03-08T15:31:58.786Z,24.37
2018-03-08T15:34:27.902Z,23.38
2018-03-08T15:36:57.781Z,20.20
2018-03-08T15:39:26.866Z,17.44
2018-03-08T15:41:56.010Z,15.92
2018-03-08T15:44:25.120Z,15.47
2018-03-08T15:46:54.973Z,14.94
2018-03-08T15:49:24.143Z,14.70
2018-03-08T15:51:54.003Z,15.16
2018-03-08T15:54:23.088Z,15.98
2018-03-08T15:56:52.224Z,18.33
2018-03-08T15:59:21.335Z,18.42
2018-03-08T16:01:51.212Z,17.50
2018-03-08T16:04:20.327Z,16.56
2018-03-08T16:20:36.379Z,14.19
2018-03-08T16:23:05.487Z,14.16
2018-03-08T16:25:34.587Z,14.19
2018-03-08T16:28:03.702Z,14.01
2018-03-08T16:30:32.780Z,14.03
2018-03-08T16:33:01.900Z,13.91
2018-03-08T16:35:31.743Z,13.86
2018-03-08T16:38:00.832Z,13.76
2018-03-08T16:40:29.957Z,13.65
2018-03-08T16:42:59.051Z,13.54
2018-03-08T16:45:28.180Z,13.45
2018-03-08T16:47:57.297Z,13.41
2018-03-08T16:50:26.448Z,13.29
2018-03-08T16:52:55.501Z,13.23
2018-03-08T16:55:24.618Z,13.21
2018-03-08T16:57:53.710Z,13.18
2018-03-08T17:00:22.840Z,13.09
2018-03-08T17:02:51.966Z,13.07
2018-03-08T17:05:22.585Z,13.04
2018-03-08T17:07:51.806Z,12.96
2018-03-08T17:10:21.793Z,12.83
2018-03-08T17:12:50.925Z,12.81
2018-03-08T17:15:20.809Z,12.79
2018-03-08T17:17:49.907Z,12.67
2018-03-08T17:20:19.028Z,12.65
2018-03-08T17:22:48.882Z,12.62
2018-03-08T17:25:18.010Z,12.58
2018-03-08T17:27:47.118Z,12.50
2018-03-08T17:30:16.202Z,12.47
2018-03-08T17:32:45.333Z,12.44
2018-03-08T17:35:15.201Z,12.41
2018-03-08T17:37:44.338Z,12.40
2018-03-08T17:40:13.425Z,12.35
2018-03-08T17:42:42.536Z,12.39
2018-03-08T17:45:12.397Z,12.36
2018-03-08T17:47:41.548Z,12.34
2018-03-08T17:50:11.402Z,12.39
2018-03-08T17:52:40.536Z,12.38
2018-03-08T17:55:09.644Z,12.37
2018-03-08T17:57:38.758Z,12.33
2018-03-08T18:00:08.608Z,12.35
2018-03-08T18:02:37.709Z,12.33
2018-03-08T18:05:06.845Z,12.33
2018-03-08T18:07:35.949Z,12.33
2018-03-08T18:10:05.828Z,12.32
2018-03-08T18:12:34.924Z,12.32
2018-03-08T18:15:04.053Z,12.37
2018-03-08T18:17:33.931Z,12.30
2018-03-08T18:20:03.779Z,12.32
2018-03-08T18:22:33.676Z,12.34
2018-03-08T18:25:02.794Z,12.40
2018-03-08T18:27:31.909Z,12.42
2018-03-08T18:30:01.017Z,12.44
2018-03-08T18:32:30.125Z,12.44
2018-03-08T18:34:59.212Z,12.44
2018-03-08T18:37:28.374Z,12.43
2018-03-08T18:39:58.232Z,12.47
2018-03-08T18:42:27.330Z,12.46
2018-03-08T18:44:56.466Z,12.52
2018-03-08T18:47:25.584Z,12.46
2018-03-08T18:49:54.697Z,12.43
2018-03-08T18:52:23.822Z,12.51
2018-03-08T18:54:52.927Z,12.55
2018-03-08T18:57:22.029Z,12.59
2018-03-08T18:59:51.932Z,12.59
2018-03-08T19:02:21.054Z,12.61
2018-03-08T19:04:50.194Z,12.60
2018-03-08T19:07:19.288Z,12.57
2018-03-08T19:09:48.500Z,12.57
2018-03-08T19:12:17.621Z,12.56
2018-03-08T19:14:46.720Z,12.57
2018-03-08T19:17:15.843Z,12.52
2018-03-08T19:19:44.964Z,12.54
2018-03-08T19:22:14.835Z,12.53
2018-03-08T19:24:43.963Z,12.53
2018-03-08T19:27:13.836Z,12.52
2018-03-08T19:29:42.924Z,12.47
2018-03-08T19:32:12.087Z,12.45
2018-03-08T19:34:41.198Z,12.44
2018-03-08T19:37:10.311Z,12.43
2018-03-08T19:39:39.441Z,12.51
2018-03-08T19:42:08.562Z,12.53
2018-03-08T19:44:38.447Z,12.49
2018-03-08T19:47:07.764Z,12.49
2018-03-08T19:49:37.641Z,12.46
2018-03-08T19:52:06.763Z,12.48
2018-03-08T19:54:35.886Z,12.46
2018-03-08T19:57:05.791Z,12.48
2018-03-08T19:59:35.662Z,12.47
2018-03-08T20:02:04.772Z,12.42
2018-03-08T20:04:33.873Z,12.42
2018-03-08T20:07:03.006Z,12.42
2018-03-08T20:09:32.108Z,12.41
2018-03-08T20:12:01.214Z,12.39
2018-03-08T20:14:30.357Z,12.35
2018-03-08T20:16:59.455Z,12.30
2018-03-08T20:19:28.578Z,12.28
2018-03-08T20:21:58.456Z,12.22
2018-03-08T20:24:27.581Z,12.16
2018-03-08T20:26:57.482Z,12.11
2018-03-08T20:29:26.579Z,12.08
2018-03-08T20:31:55.709Z,12.04
2018-03-08T20:34:24.845Z,12.00
2018-03-08T20:36:53.993Z,11.97
2018-03-08T20:39:23.849Z,11.91
2018-03-08T20:41:52.975Z,11.87
2018-03-08T20:44:22.099Z,11.85
2018-03-08T20:46:51.994Z,11.81
2018-03-08T20:49:21.115Z,11.79
2018-03-08T20:51:50.266Z,11.69
2018-03-08T20:54:19.369Z,11.59
2018-03-08T20:56:48.505Z,11.49
2018-03-08T20:59:17.621Z,11.37
2018-03-08T21:01:46.738Z,11.28
2018-03-08T21:04:15.895Z,11.23
2018-03-08T21:06:45.021Z,11.16
2018-03-08T21:09:14.134Z,11.13
2018-03-08T21:11:43.275Z,11.03
2018-03-08T21:14:13.146Z,10.84
2018-03-08T21:16:43.046Z,10.68
2018-03-08T21:19:12.948Z,10.41
2018-03-08T21:21:42.050Z,10.19
2018-03-08T21:24:11.130Z,9.92
2018-03-08T21:26:40.228Z,9.88
2018-03-08T21:29:09.392Z,9.72
2018-03-08T21:31:38.465Z,9.52
2018-03-08T21:34:07.578Z,9.47
2018-03-08T21:36:36.673Z,9.40
2018-03-08T21:39:05.796Z,9.26
2018-03-08T21:41:35.665Z,9.25
2018-03-08T21:44:04.779Z,9.22
2018-03-08T21:46:33.862Z,9.25
2018-03-08T21:49:04.477Z,9.18
2018-03-08T21:51:33.578Z,9.11
2018-03-08T21:54:02.659Z,9.21
2018-03-08T21:56:31.800Z,9.23
2018-03-08T21:59:01.661Z,9.21
2018-03-08T22:01:30.767Z,9.07
2018-03-08T22:03:59.879Z,9.00
2018-03-08T22:06:28.989Z,8.97
2018-03-08T22:08:58.072Z,8.99
2018-03-08T22:11:28.698Z,9.07
2018-03-08T22:13:57.788Z,9.01
2018-03-08T22:16:27.644Z,8.95
2018-03-08T22:18:56.760Z,9.01
2018-03-08T22:21:26.595Z,9.05
2018-03-08T22:23:55.714Z,9.00
2018-03-08T22:26:24.800Z,8.98
2018-03-08T22:28:53.909Z,8.95
2018-03-08T22:31:22.983Z,8.80
2018-03-08T22:33:52.109Z,8.96
2018-03-08T22:36:21.176Z,9.00
2018-03-08T22:38:50.296Z,9.07
2018-03-08T22:41:19.392Z,8.94
2018-03-08T22:43:48.495Z,8.91
2018-03-08T22:46:17.583Z,9.01
2018-03-08T22:48:46.674Z,9.01
2018-03-08T22:51:15.771Z,8.94
2018-03-08T22:53:44.863Z,8.92
2018-03-08T22:56:13.957Z,8.90
2018-03-08T22:58:43.060Z,8.83
2018-03-08T23:14:57.388Z,9.19
2018-03-08T23:17:26.475Z,9.24
2018-03-08T23:19:55.565Z,9.15
2018-03-08T23:22:24.663Z,9.23
2018-03-08T23:24:53.752Z,9.26
2018-03-08T23:27:22.887Z,9.26
2018-03-08T23:29:51.962Z,9.16
2018-03-08T23:32:21.058Z,9.02
2018-03-08T23:34:50.154Z,8.96
2018-03-08T23:37:19.254Z,8.94
2018-03-08T23:39:48.334Z,8.95
2018-03-08T23:42:17.457Z,8.95
2018-03-08T23:44:46.569Z,8.77
2018-03-08T23:47:15.649Z,8.74
2018-03-08T23:49:44.774Z,8.82
2018-03-08T23:52:13.846Z,9.06
2018-03-08T23:54:42.966Z,8.93
2018-03-08T23:57:12.820Z,8.92
2018-03-08T23:59:41.914Z,8.86
